createdAt,value
2017-10-06T00:00:42.735Z,20.81
2017-10-06T00:01:42.720Z,20.84
2017-10-06T00:02:42.709Z,20.93
2017-10-06T00:03:42.692Z,20.85
2017-10-06T00:04:42.676Z,20.84
2017-10-06T00:05:42.666Z,20.85
2017-10-06T00:06:42.647Z,20.92
2017-10-06T00:07:42.634Z,20.75
2017-10-06T00:08:42.619Z,20.72
2017-10-06T00:09:42.604Z,20.88
2017-10-06T00:10:42.590Z,20.88
2017-10-06T00:11:42.575Z,20.88
2017-10-06T00:12:42.561Z,20.87
2017-10-06T00:13:42.546Z,20.78
2017-10-06T00:14:42.532Z,20.82
2017-10-06T00:15:42.518Z,20.82
2017-10-06T00:16:42.509Z,20.81
2017-10-06T00:17:42.489Z,20.81
2017-10-06T00:18:42.473Z,20.84
2017-10-06T00:19:42.459Z,20.84
2017-10-06T00:20:42.446Z,20.77
2017-10-06T00:21:42.429Z,20.74
2017-10-06T00:22:42.419Z,20.75
2017-10-06T00:23:42.403Z,20.84
2017-10-06T00:24:42.389Z,20.88
2017-10-06T00:25:42.372Z,20.84
2017-10-06T00:26:42.360Z,20.81
2017-10-06T00:27:42.345Z,20.82
2017-10-06T00:28:42.330Z,20.74
2017-10-06T00:29:42.316Z,20.77
2017-10-06T00:30:42.301Z,20.84
2017-10-06T00:31:42.292Z,20.77
2017-10-06T00:32:42.273Z,20.88
2017-10-06T00:33:42.259Z,20.90
2017-10-06T00:34:42.243Z,20.84
2017-10-06T00:35:42.230Z,20.78
2017-10-06T00:36:42.214Z,20.75
2017-10-06T00:37:42.200Z,20.75
2017-10-06T00:38:42.185Z,20.84
2017-10-06T00:39:42.176Z,20.78
2017-10-06T00:40:42.158Z,20.78
2017-10-06T00:41:42.143Z,20.84
2017-10-06T00:42:42.132Z,20.78
2017-10-06T00:43:42.114Z,20.74
2017-10-06T00:44:42.101Z,20.85
2017-10-06T00:45:42.086Z,20.85
2017-10-06T00:46:42.071Z,20.75
2017-10-06T00:47:42.059Z,20.72
2017-10-06T00:48:42.043Z,20.77
2017-10-06T00:49:42.028Z,20.74
2017-10-06T00:50:42.021Z,20.81
2017-10-06T00:51:41.999Z,20.78
2017-10-06T00:52:41.999Z,20.82
2017-10-06T00:53:41.969Z,20.81
2017-10-06T00:54:41.956Z,20.84
2017-10-06T00:55:41.941Z,20.72
2017-10-06T00:56:41.927Z,20.75
2017-10-06T00:57:41.914Z,20.80
2017-10-06T00:58:41.898Z,20.75
2017-10-06T00:59:41.885Z,20.67
2017-10-06T01:00:41.870Z,20.75
2017-10-06T01:01:41.855Z,20.85
2017-10-06T01:02:41.841Z,20.77
2017-10-06T01:03:41.829Z,20.70
2017-10-06T01:04:41.819Z,20.84
2017-10-06T01:05:41.797Z,20.72
2017-10-06T01:06:41.783Z,20.80
2017-10-06T01:07:41.770Z,20.69
2017-10-06T01:08:41.755Z,20.78
2017-10-06T01:09:41.741Z,20.77
2017-10-06T01:10:41.726Z,20.77
2017-10-06T01:11:41.712Z,20.72
2017-10-06T01:12:41.698Z,20.74
2017-10-06T01:13:41.682Z,20.70
2017-10-06T01:14:41.668Z,20.80
2017-10-06T01:15:41.654Z,20.75
2017-10-06T01:16:41.641Z,20.78
2017-10-06T01:17:41.626Z,20.65
2017-10-06T01:18:41.638Z,20.72
2017-10-06T01:19:41.599Z,20.81
2017-10-06T01:20:41.583Z,20.65
2017-10-06T01:21:41.569Z,20.66
2017-10-06T01:22:41.553Z,20.65
2017-10-06T01:23:41.540Z,20.66
2017-10-06T01:24:41.526Z,20.65
2017-10-06T01:25:41.512Z,20.67
2017-10-06T01:26:41.500Z,20.66
2017-10-06T01:27:41.483Z,20.77
2017-10-06T01:28:41.468Z,20.72
2017-10-06T01:29:41.453Z,20.66
2017-10-06T01:30:41.438Z,20.70
2017-10-06T01:31:41.424Z,20.66
2017-10-06T01:32:41.411Z,20.67
2017-10-06T01:33:41.395Z,20.60
2017-10-06T01:34:41.381Z,20.67
2017-10-06T01:35:41.368Z,20.63
2017-10-06T01:36:41.353Z,20.63
2017-10-06T01:37:41.338Z,20.66
2017-10-06T01:38:41.323Z,20.56
2017-10-06T01:39:41.310Z,20.59
2017-10-06T01:40:41.294Z,20.66
2017-10-06T01:41:41.281Z,20.65
2017-10-06T01:42:41.266Z,20.65
2017-10-06T01:43:41.253Z,20.63
2017-10-06T01:44:41.239Z,20.59
2017-10-06T01:45:41.222Z,20.55
2017-10-06T01:46:41.209Z,20.52
2017-10-06T01:47:41.194Z,20.56
2017-10-06T01:48:41.180Z,20.62
2017-10-06T01:49:41.165Z,20.51
2017-10-06T01:50:41.151Z,20.63
2017-10-06T01:51:41.137Z,20.50
2017-10-06T01:52:41.122Z,20.51
2017-10-06T01:53:41.108Z,20.52
2017-10-06T01:54:41.094Z,20.50
2017-10-06T01:55:41.078Z,20.51
2017-10-06T01:56:41.065Z,20.51
2017-10-06T01:57:41.054Z,20.48
2017-10-06T01:58:41.036Z,20.63
2017-10-06T01:59:41.020Z,20.50
2017-10-06T02:00:41.006Z,20.50
2017-10-06T02:01:40.990Z,20.50
2017-10-06T02:02:40.992Z,20.50
2017-10-06T02:03:40.963Z,20.56
2017-10-06T02:04:40.947Z,20.52
2017-10-06T02:05:40.933Z,20.52
2017-10-06T02:06:40.918Z,20.51
2017-10-06T02:07:40.905Z,20.43
2017-10-06T02:08:40.890Z,20.44
2017-10-06T02:09:40.875Z,20.41
2017-10-06T02:10:40.861Z,20.48
2017-10-06T02:11:40.846Z,20.50
2017-10-06T02:12:40.833Z,20.44
2017-10-06T02:13:40.817Z,20.52
2017-10-06T02:14:40.802Z,20.52
2017-10-06T02:15:40.788Z,20.50
2017-10-06T02:16:40.773Z,20.43
2017-10-06T02:17:40.758Z,20.43
2017-10-06T02:18:40.744Z,20.50
2017-10-06T02:19:40.729Z,20.47
2017-10-06T02:20:40.716Z,20.44
2017-10-06T02:21:40.705Z,20.44
2017-10-06T02:22:40.685Z,20.51
2017-10-06T02:23:40.672Z,20.51
2017-10-06T02:24:40.657Z,20.44
2017-10-06T02:25:40.641Z,20.48
2017-10-06T02:26:40.629Z,20.48
2017-10-06T02:27:40.614Z,20.40
2017-10-06T02:28:40.599Z,20.44
2017-10-06T02:29:40.583Z,20.48
2017-10-06T02:30:40.569Z,20.43
2017-10-06T02:31:40.556Z,20.48
2017-10-06T02:32:40.541Z,20.55
2017-10-06T02:33:40.526Z,20.51
2017-10-06T02:34:40.511Z,20.41
2017-10-06T02:35:40.497Z,20.39
2017-10-06T02:36:40.482Z,20.47
2017-10-06T02:37:40.474Z,20.44
2017-10-06T02:38:40.452Z,20.43
2017-10-06T02:39:40.438Z,20.47
2017-10-06T02:40:40.442Z,20.48
2017-10-06T02:41:40.408Z,20.44
2017-10-06T02:42:40.395Z,20.50
2017-10-06T02:43:40.380Z,20.44
2017-10-06T02:44:40.366Z,20.43
2017-10-06T02:45:40.355Z,20.47
2017-10-06T02:46:40.335Z,20.41
2017-10-06T02:47:40.323Z,20.43
2017-10-06T02:48:40.307Z,20.48
2017-10-06T02:49:40.292Z,20.47
2017-10-06T02:50:40.279Z,20.43
2017-10-06T02:51:40.263Z,20.41
2017-10-06T02:52:40.249Z,20.40
2017-10-06T02:53:40.234Z,20.40
2017-10-06T02:54:40.219Z,20.50
2017-10-06T02:55:40.207Z,20.40
2017-10-06T02:56:40.191Z,20.43
2017-10-06T02:57:40.176Z,20.41
2017-10-06T02:58:40.161Z,20.39
2017-10-06T02:59:40.147Z,20.41
2017-10-06T03:00:40.131Z,20.44
2017-10-06T03:01:40.116Z,20.47
2017-10-06T03:02:40.103Z,20.44
2017-10-06T03:03:40.088Z,20.39
2017-10-06T03:04:40.074Z,20.40
2017-10-06T03:05:40.059Z,20.39
2017-10-06T03:06:40.044Z,20.40
2017-10-06T03:07:40.030Z,20.37
2017-10-06T03:08:40.018Z,20.40
2017-10-06T03:09:39.999Z,20.34
2017-10-06T03:10:39.986Z,20.39
2017-10-06T03:11:39.970Z,20.41
2017-10-06T03:12:39.957Z,20.43
2017-10-06T03:13:39.940Z,20.32
2017-10-06T03:14:39.926Z,20.40
2017-10-06T03:15:39.912Z,20.39
2017-10-06T03:16:39.898Z,20.36
2017-10-06T03:17:39.882Z,20.32
2017-10-06T03:18:39.868Z,20.43
2017-10-06T03:19:39.854Z,20.41
2017-10-06T03:20:39.841Z,20.31
2017-10-06T03:21:39.824Z,20.36
2017-10-06T03:22:39.810Z,20.37
2017-10-06T03:23:39.794Z,20.32
2017-10-06T03:24:39.783Z,20.34
2017-10-06T03:25:39.765Z,20.31
2017-10-06T03:26:39.753Z,20.32
2017-10-06T03:27:39.737Z,20.29
2017-10-06T03:28:39.723Z,20.37
2017-10-06T03:29:39.707Z,20.29
2017-10-06T03:30:39.694Z,20.32
2017-10-06T03:31:39.679Z,20.28
2017-10-06T03:32:39.665Z,20.36
2017-10-06T03:33:39.648Z,20.37
2017-10-06T03:34:39.635Z,20.34
2017-10-06T03:35:39.621Z,20.32
2017-10-06T03:36:39.607Z,20.34
2017-10-06T03:37:39.590Z,20.29
2017-10-06T03:38:39.576Z,20.31
2017-10-06T03:39:39.565Z,20.34
2017-10-06T03:40:39.554Z,20.29
2017-10-06T03:41:39.532Z,20.34
2017-10-06T03:42:39.537Z,20.32
2017-10-06T03:43:39.502Z,20.29
2017-10-06T03:44:39.489Z,20.34
2017-10-06T03:45:39.474Z,20.32
2017-10-06T03:46:39.458Z,20.32
2017-10-06T03:47:39.445Z,20.39
2017-10-06T03:48:39.433Z,20.36
2017-10-06T03:49:39.415Z,20.32
2017-10-06T03:50:39.401Z,20.28
2017-10-06T03:51:39.385Z,20.26
2017-10-06T03:52:39.371Z,20.32
2017-10-06T03:53:39.355Z,20.28
2017-10-06T03:54:39.342Z,20.29
2017-10-06T03:55:39.327Z,20.34
2017-10-06T03:56:39.312Z,20.31
2017-10-06T03:57:39.301Z,20.32
2017-10-06T03:58:39.284Z,20.34
2017-10-06T03:59:39.267Z,20.29
2017-10-06T04:00:39.254Z,20.31
2017-10-06T04:01:39.239Z,20.37
2017-10-06T04:02:39.225Z,20.34
2017-10-06T04:03:39.209Z,20.29
2017-10-06T04:04:39.194Z,20.32
2017-10-06T04:05:39.180Z,20.34
2017-10-06T04:06:39.165Z,20.34
2017-10-06T04:07:39.152Z,20.26
2017-10-06T04:08:39.136Z,20.31
2017-10-06T04:09:39.122Z,20.36
2017-10-06T04:10:39.106Z,20.32
2017-10-06T04:11:39.091Z,20.28
2017-10-06T04:12:39.079Z,20.32
2017-10-06T04:13:39.062Z,20.25
2017-10-06T04:14:39.048Z,20.34
2017-10-06T04:15:39.033Z,20.21
2017-10-06T04:16:39.025Z,20.32
2017-10-06T04:17:39.005Z,20.26
2017-10-06T04:18:38.989Z,20.29
2017-10-06T04:19:38.974Z,20.34
2017-10-06T04:20:38.961Z,20.29
2017-10-06T04:21:38.945Z,20.29
2017-10-06T04:22:38.931Z,20.32
2017-10-06T04:23:38.916Z,20.22
2017-10-06T04:24:38.900Z,20.21
2017-10-06T04:25:38.886Z,20.29
2017-10-06T04:26:38.871Z,20.22
2017-10-06T04:27:38.856Z,20.25
2017-10-06T04:28:38.843Z,20.21
2017-10-06T04:29:38.827Z,20.25
2017-10-06T04:30:38.813Z,20.32
2017-10-06T04:31:38.799Z,20.36
2017-10-06T04:32:38.785Z,20.47
2017-10-06T04:33:38.769Z,20.50
2017-10-06T04:34:38.753Z,20.48
2017-10-06T04:35:38.739Z,20.51
2017-10-06T04:36:38.724Z,20.55
2017-10-06T04:37:38.709Z,20.50
2017-10-06T04:38:38.695Z,20.48
2017-10-06T04:39:38.680Z,20.62
2017-10-06T04:40:38.666Z,20.51
2017-10-06T04:41:38.651Z,20.55
2017-10-06T04:42:38.636Z,20.62
2017-10-06T04:43:38.621Z,20.50
2017-10-06T04:44:38.608Z,20.48
2017-10-06T04:45:38.592Z,20.59
2017-10-06T04:46:38.578Z,20.48
2017-10-06T04:47:38.565Z,20.50
2017-10-06T04:48:38.549Z,20.55
2017-10-06T04:49:38.533Z,20.56
2017-10-06T04:50:38.520Z,20.59
2017-10-06T04:51:38.504Z,20.59
2017-10-06T04:52:38.490Z,20.59
2017-10-06T04:53:38.475Z,20.65
2017-10-06T04:54:38.461Z,20.67
2017-10-06T04:55:38.446Z,20.78
2017-10-06T04:56:38.433Z,20.80
2017-10-06T04:57:38.415Z,20.78
2017-10-06T04:58:38.402Z,20.77
2017-10-06T04:59:38.387Z,20.78
2017-10-06T05:00:38.373Z,20.81
2017-10-06T05:01:38.358Z,20.77
2017-10-06T05:02:38.343Z,20.77
2017-10-06T05:03:38.330Z,20.87
2017-10-06T05:04:38.315Z,20.74
2017-10-06T05:05:38.298Z,20.84
2017-10-06T05:06:38.287Z,20.90
2017-10-06T05:07:38.270Z,20.87
2017-10-06T05:08:38.255Z,20.82
2017-10-06T05:09:38.241Z,20.81
2017-10-06T05:10:38.227Z,20.85
2017-10-06T05:11:38.212Z,20.85
2017-10-06T05:12:38.198Z,20.85
2017-10-06T05:13:38.182Z,20.87
2017-10-06T05:14:38.169Z,20.85
2017-10-06T05:15:38.156Z,20.95
2017-10-06T05:16:38.139Z,20.92
2017-10-06T05:17:38.123Z,20.92
2017-10-06T05:18:38.115Z,20.90
2017-10-06T05:19:38.096Z,20.87
2017-10-06T05:20:38.082Z,20.95
2017-10-06T05:21:38.066Z,20.88
2017-10-06T05:22:38.052Z,20.90
2017-10-06T05:23:38.038Z,20.88
2017-10-06T05:24:38.023Z,20.96
2017-10-06T05:25:38.009Z,20.87
2017-10-06T05:26:37.994Z,20.93
2017-10-06T05:27:37.983Z,20.90
2017-10-06T05:28:37.966Z,20.93
2017-10-06T05:29:37.950Z,20.93
2017-10-06T05:30:37.938Z,20.96
2017-10-06T05:31:37.921Z,20.99
2017-10-06T05:32:37.906Z,21.05
2017-10-06T05:33:37.892Z,21.00
2017-10-06T05:34:37.878Z,20.97
2017-10-06T05:35:37.862Z,20.92
2017-10-06T05:36:37.850Z,20.95
2017-10-06T05:37:37.832Z,20.99
2017-10-06T05:38:37.818Z,21.02
2017-10-06T05:39:37.804Z,20.99
2017-10-06T05:40:37.791Z,20.97
2017-10-06T05:41:37.777Z,20.97
2017-10-06T05:42:37.761Z,21.05
2017-10-06T05:43:37.747Z,21.05
2017-10-06T05:44:37.733Z,20.95
2017-10-06T05:45:37.718Z,20.85
2017-10-06T05:46:37.702Z,20.82
2017-10-06T05:47:37.688Z,20.92
2017-10-06T05:48:37.675Z,20.75
2017-10-06T05:49:37.661Z,20.82
2017-10-06T05:50:37.645Z,20.70
2017-10-06T05:51:37.632Z,20.75
2017-10-06T05:52:37.617Z,20.74
2017-10-06T05:53:37.607Z,20.80
2017-10-06T05:54:37.587Z,20.85
2017-10-06T05:55:37.574Z,20.84
2017-10-06T05:56:37.559Z,20.84
2017-10-06T05:57:37.543Z,20.92
2017-10-06T05:58:37.529Z,20.97
2017-10-06T05:59:37.514Z,20.96
2017-10-06T06:00:37.501Z,21.07
2017-10-06T06:01:37.486Z,20.96
2017-10-06T06:02:37.472Z,20.99
2017-10-06T06:03:37.458Z,20.96
2017-10-06T06:04:37.442Z,21.05
2017-10-06T06:05:37.428Z,20.92
2017-10-06T06:06:37.413Z,20.96
2017-10-06T06:07:37.398Z,20.96
2017-10-06T06:08:37.387Z,21.00
2017-10-06T06:09:37.373Z,21.00
2017-10-06T06:10:37.356Z,20.95
2017-10-06T06:11:37.346Z,21.02
2017-10-06T06:12:37.326Z,21.14
2017-10-06T06:13:37.312Z,21.07
2017-10-06T06:14:37.298Z,21.00
2017-10-06T06:15:37.283Z,21.03
2017-10-06T06:16:37.268Z,20.97
2017-10-06T06:17:37.253Z,20.95
2017-10-06T06:18:37.247Z,20.99
2017-10-06T06:19:37.225Z,21.00
2017-10-06T06:20:37.212Z,21.03
2017-10-06T06:21:37.196Z,20.93
2017-10-06T06:22:37.181Z,20.92
2017-10-06T06:23:37.167Z,20.92
2017-10-06T06:24:37.153Z,20.99
2017-10-06T06:25:37.137Z,20.90
2017-10-06T06:26:37.124Z,20.90
2017-10-06T06:27:37.108Z,20.93
2017-10-06T06:28:37.095Z,20.93
2017-10-06T06:29:37.080Z,20.88
2017-10-06T06:30:37.066Z,20.95
2017-10-06T06:31:37.053Z,20.97
2017-10-06T06:32:37.038Z,20.90
2017-10-06T06:33:37.023Z,21.02
2017-10-06T06:34:37.007Z,20.92
2017-10-06T06:35:36.993Z,21.03
2017-10-06T06:36:36.979Z,20.96
2017-10-06T06:37:36.965Z,20.92
2017-10-06T06:38:36.949Z,20.99
2017-10-06T06:39:36.935Z,20.95
2017-10-06T06:40:36.921Z,20.97
2017-10-06T06:41:36.906Z,21.02
2017-10-06T06:42:36.891Z,20.97
2017-10-06T06:43:36.877Z,21.02
2017-10-06T06:44:36.863Z,21.09
2017-10-06T06:45:36.849Z,21.09
2017-10-06T06:46:36.833Z,21.11
2017-10-06T06:47:36.819Z,21.06
2017-10-06T06:48:36.806Z,21.07
2017-10-06T06:49:36.791Z,21.05
2017-10-06T06:50:36.776Z,20.95
2017-10-06T06:51:36.761Z,20.95
2017-10-06T06:52:36.751Z,21.00
2017-10-06T06:53:36.732Z,20.93
2017-10-06T06:54:36.718Z,20.99
2017-10-06T06:55:36.705Z,20.93
2017-10-06T06:56:36.690Z,21.02
2017-10-06T06:57:36.674Z,21.05
2017-10-06T06:58:36.660Z,21.06
2017-10-06T06:59:36.646Z,21.00
2017-10-06T07:00:36.632Z,21.00
2017-10-06T07:01:36.617Z,20.93
2017-10-06T07:02:36.603Z,20.99
2017-10-06T07:03:36.588Z,20.90
2017-10-06T07:04:36.582Z,20.95
2017-10-06T07:05:36.558Z,20.82
2017-10-06T07:06:36.544Z,20.95
2017-10-06T07:07:36.530Z,20.85
2017-10-06T07:08:36.515Z,20.92
2017-10-06T07:09:36.502Z,20.88
2017-10-06T07:10:36.487Z,20.97
2017-10-06T07:11:36.472Z,20.97
2017-10-06T07:12:36.458Z,20.99
2017-10-06T07:13:36.443Z,21.06
2017-10-06T07:14:36.428Z,20.93
2017-10-06T07:15:36.415Z,21.02
2017-10-06T07:16:36.401Z,21.02
2017-10-06T07:17:36.385Z,21.12
2017-10-06T07:18:36.372Z,21.07
2017-10-06T07:19:36.356Z,21.14
2017-10-06T07:20:36.342Z,21.14
2017-10-06T07:21:36.328Z,21.20
2017-10-06T07:22:36.313Z,21.14
2017-10-06T07:23:36.304Z,21.12
2017-10-06T07:24:36.285Z,21.00
2017-10-06T07:25:36.271Z,20.99
2017-10-06T07:26:36.257Z,20.93
2017-10-06T07:27:36.243Z,21.07
2017-10-06T07:28:36.227Z,20.96
2017-10-06T07:29:36.214Z,21.00
2017-10-06T07:30:36.199Z,21.05
2017-10-06T07:31:36.186Z,21.03
2017-10-06T07:32:36.170Z,20.97
2017-10-06T07:33:36.155Z,20.99
2017-10-06T07:34:36.142Z,21.00
2017-10-06T07:35:36.128Z,21.02
2017-10-06T07:36:36.114Z,20.90
2017-10-06T07:37:36.098Z,20.85
2017-10-06T07:38:36.084Z,20.88
2017-10-06T07:39:36.070Z,20.95
2017-10-06T07:40:36.056Z,20.84
2017-10-06T07:41:36.042Z,20.82
2017-10-06T07:42:36.025Z,20.82
2017-10-06T07:43:36.012Z,20.84
2017-10-06T07:44:35.997Z,20.84
2017-10-06T07:45:35.983Z,20.77
2017-10-06T07:46:35.969Z,20.85
2017-10-06T07:47:35.955Z,20.74
2017-10-06T07:48:35.940Z,20.85
2017-10-06T07:49:35.925Z,20.85
2017-10-06T07:50:35.910Z,20.84
2017-10-06T07:51:35.902Z,20.72
2017-10-06T07:52:35.882Z,20.77
2017-10-06T07:53:35.866Z,20.85
2017-10-06T07:54:35.853Z,20.75
2017-10-06T07:55:35.838Z,20.78
2017-10-06T07:56:35.825Z,20.78
2017-10-06T07:57:35.832Z,20.81
2017-10-06T07:58:35.798Z,20.72
2017-10-06T07:59:35.785Z,20.77
2017-10-06T08:00:35.765Z,20.67
2017-10-06T08:01:35.752Z,20.65
2017-10-06T08:02:35.737Z,20.67
2017-10-06T08:03:35.724Z,20.69
2017-10-06T08:04:35.708Z,20.63
2017-10-06T08:05:35.693Z,20.62
2017-10-06T08:06:35.680Z,20.80
2017-10-06T08:07:35.664Z,20.65
2017-10-06T08:08:35.651Z,20.77
2017-10-06T08:09:35.636Z,20.67
2017-10-06T08:10:35.621Z,20.78
2017-10-06T08:11:35.608Z,20.67
2017-10-06T08:12:35.592Z,20.65
2017-10-06T08:13:35.579Z,20.60
2017-10-06T08:14:35.564Z,20.67
2017-10-06T08:15:35.548Z,20.63
2017-10-06T08:16:35.535Z,20.59
2017-10-06T08:17:35.518Z,20.65
2017-10-06T08:18:35.506Z,20.67
2017-10-06T08:19:35.491Z,20.62
2017-10-06T08:20:35.476Z,20.63
2017-10-06T08:21:35.460Z,20.65
2017-10-06T08:22:35.447Z,20.66
2017-10-06T08:23:35.432Z,20.65
2017-10-06T08:24:35.418Z,20.63
2017-10-06T08:25:35.403Z,20.80
2017-10-06T08:26:35.389Z,20.75
2017-10-06T08:27:35.374Z,20.74
2017-10-06T08:28:35.359Z,20.74
2017-10-06T08:29:35.344Z,20.77
2017-10-06T08:30:35.330Z,20.92
2017-10-06T08:31:35.316Z,20.84
2017-10-06T08:32:35.300Z,20.82
2017-10-06T08:33:35.286Z,20.90
2017-10-06T08:34:35.271Z,20.87
2017-10-06T08:35:35.261Z,20.85
2017-10-06T08:36:35.243Z,20.92
2017-10-06T08:37:35.227Z,20.93
2017-10-06T08:38:35.365Z,20.99
2017-10-06T08:39:35.198Z,21.00
2017-10-06T08:40:35.186Z,21.03
2017-10-06T08:41:35.171Z,21.07
2017-10-06T08:42:35.155Z,21.09
2017-10-06T08:43:35.142Z,21.12
2017-10-06T08:44:35.126Z,21.29
2017-10-06T08:45:35.110Z,21.37
2017-10-06T08:46:35.097Z,21.51
2017-10-06T08:47:35.103Z,21.55
2017-10-06T08:48:35.069Z,21.48
2017-10-06T08:49:35.054Z,21.50
2017-10-06T08:50:35.040Z,21.45
2017-10-06T08:51:35.025Z,21.46
2017-10-06T08:52:35.011Z,21.58
2017-10-06T08:53:34.996Z,21.61
2017-10-06T08:54:34.981Z,21.62
2017-10-06T08:55:34.973Z,21.64
2017-10-06T08:56:34.954Z,21.62
2017-10-06T08:57:34.937Z,21.62
2017-10-06T08:58:34.924Z,21.67
2017-10-06T08:59:34.909Z,21.64
2017-10-06T09:00:34.896Z,21.77
2017-10-06T09:01:34.882Z,21.91
2017-10-06T09:02:34.866Z,21.92
2017-10-06T09:03:34.852Z,21.92
2017-10-06T09:04:34.839Z,21.83
2017-10-06T09:05:34.825Z,21.83
2017-10-06T09:06:34.810Z,21.77
2017-10-06T09:07:34.796Z,21.91
2017-10-06T09:08:34.783Z,21.80
2017-10-06T09:09:34.769Z,21.91
2017-10-06T09:10:34.754Z,21.98
2017-10-06T09:11:34.739Z,21.92
2017-10-06T09:12:34.727Z,21.96
2017-10-06T09:13:34.711Z,21.91
2017-10-06T09:14:34.697Z,21.99
2017-10-06T09:15:34.683Z,22.04
2017-10-06T09:16:34.670Z,22.28
2017-10-06T09:17:34.655Z,22.50
2017-10-06T09:18:34.641Z,22.62
2017-10-06T09:19:34.627Z,22.76
2017-10-06T09:20:34.614Z,22.60
2017-10-06T09:21:34.600Z,22.48
2017-10-06T09:22:34.585Z,22.26
2017-10-06T09:23:34.571Z,22.11
2017-10-06T09:24:34.559Z,22.00
2017-10-06T09:25:34.545Z,21.99
2017-10-06T09:26:34.531Z,21.92
2017-10-06T09:27:34.516Z,21.91
2017-10-06T09:28:34.503Z,22.04
2017-10-06T09:29:34.489Z,21.99
2017-10-06T09:30:34.476Z,22.00
2017-10-06T09:31:34.462Z,22.00
2017-10-06T09:32:34.447Z,21.96
2017-10-06T09:33:34.432Z,22.04
2017-10-06T09:34:34.421Z,22.04
2017-10-06T09:35:34.405Z,22.20
2017-10-06T09:36:34.393Z,22.32
2017-10-06T09:37:34.378Z,22.53
2017-10-06T09:38:34.364Z,22.48
2017-10-06T09:39:35.752Z,22.66
2017-10-06T09:40:34.338Z,22.51
2017-10-06T09:41:34.322Z,22.41
2017-10-06T09:42:34.308Z,22.28
2017-10-06T09:43:34.295Z,22.15
2017-10-06T09:44:34.282Z,22.14
2017-10-06T09:45:34.267Z,22.07
2017-10-06T09:46:34.254Z,22.02
2017-10-06T09:47:34.240Z,22.07
2017-10-06T09:48:34.227Z,22.10
2017-10-06T09:49:34.213Z,22.06
2017-10-06T09:50:34.198Z,21.95
2017-10-06T09:51:34.186Z,21.96
2017-10-06T09:52:34.173Z,21.99
2017-10-06T09:53:34.158Z,21.95
2017-10-06T09:54:34.144Z,21.89
2017-10-06T09:55:34.130Z,21.95
2017-10-06T09:56:34.116Z,21.82
2017-10-06T09:57:34.103Z,21.91
2017-10-06T09:58:34.088Z,21.95
2017-10-06T09:59:34.075Z,21.92
2017-10-06T10:00:34.061Z,21.92
2017-10-06T10:01:34.046Z,21.93
2017-10-06T10:02:34.033Z,21.92
2017-10-06T10:03:34.019Z,21.93
2017-10-06T10:04:34.007Z,21.82
2017-10-06T10:05:33.992Z,21.76
2017-10-06T10:06:33.977Z,21.83
2017-10-06T10:07:33.964Z,21.92
2017-10-06T10:08:33.949Z,21.73
2017-10-06T10:09:33.936Z,21.79
2017-10-06T10:10:33.922Z,21.75
2017-10-06T10:11:33.908Z,21.79
2017-10-06T10:12:33.895Z,21.73
2017-10-06T10:13:33.880Z,21.69
2017-10-06T10:14:33.867Z,21.61
2017-10-06T10:15:33.852Z,21.64
2017-10-06T10:16:33.838Z,21.69
2017-10-06T10:17:33.823Z,21.73
2017-10-06T10:18:33.810Z,21.66
2017-10-06T10:19:33.796Z,21.62
2017-10-06T10:20:33.781Z,21.66
2017-10-06T10:21:33.768Z,21.62
2017-10-06T10:22:33.753Z,21.64
2017-10-06T10:23:33.739Z,21.61
2017-10-06T10:24:33.726Z,21.57
2017-10-06T10:25:33.712Z,21.64
2017-10-06T10:26:33.697Z,21.54
2017-10-06T10:27:33.683Z,21.58
2017-10-06T10:28:33.670Z,21.48
2017-10-06T10:29:33.655Z,21.57
2017-10-06T10:30:33.641Z,21.50
2017-10-06T10:31:33.627Z,21.55
2017-10-06T10:32:33.617Z,21.46
2017-10-06T10:33:33.598Z,21.73
2017-10-06T10:34:33.584Z,21.88
2017-10-06T10:35:33.571Z,21.95
2017-10-06T10:36:33.556Z,22.35
2017-10-06T10:37:33.541Z,22.57
2017-10-06T10:38:33.533Z,22.57
2017-10-06T10:39:33.514Z,22.53
2017-10-06T10:40:35.955Z,22.60
2017-10-06T10:41:33.486Z,22.65
2017-10-06T10:42:33.472Z,22.76
2017-10-06T10:43:33.460Z,22.84
2017-10-06T10:44:33.446Z,22.99
2017-10-06T10:45:33.433Z,23.25
2017-10-06T10:46:33.419Z,23.41
2017-10-06T10:47:33.410Z,23.59
2017-10-06T10:48:33.393Z,23.78
2017-10-06T10:49:33.382Z,23.86
2017-10-06T10:50:33.366Z,23.99
2017-10-06T10:51:33.354Z,24.28
2017-10-06T10:52:33.342Z,24.32
2017-10-06T10:53:33.328Z,24.38
2017-10-06T10:54:33.317Z,24.16
2017-10-06T10:55:33.304Z,23.81
2017-10-06T10:56:33.292Z,23.58
2017-10-06T10:57:33.278Z,23.31
2017-10-06T10:58:33.267Z,23.02
2017-10-06T10:59:33.254Z,22.99
2017-10-06T11:00:33.243Z,22.84
2017-10-06T11:01:33.229Z,22.83
2017-10-06T11:02:33.216Z,22.76
2017-10-06T11:03:33.206Z,22.73
2017-10-06T11:04:33.193Z,22.81
2017-10-06T11:05:33.179Z,22.76
2017-10-06T11:06:33.168Z,22.75
2017-10-06T11:07:33.155Z,22.91
2017-10-06T11:08:33.142Z,23.03
2017-10-06T11:09:33.129Z,23.10
2017-10-06T11:10:33.117Z,23.06
2017-10-06T11:11:33.104Z,22.99
2017-10-06T11:12:33.092Z,22.75
2017-10-06T11:13:33.077Z,22.75
2017-10-06T11:14:33.069Z,22.72
2017-10-06T11:15:33.053Z,22.65
2017-10-06T11:16:33.041Z,22.73
2017-10-06T11:17:33.026Z,22.87
2017-10-06T11:18:33.013Z,22.88
2017-10-06T11:19:33.002Z,22.90
2017-10-06T11:20:32.989Z,22.94
2017-10-06T11:21:32.975Z,22.93
2017-10-06T11:22:32.962Z,23.08
2017-10-06T11:23:32.949Z,23.62
2017-10-06T11:24:32.937Z,23.81
2017-10-06T11:25:32.922Z,23.78
2017-10-06T11:26:32.910Z,23.96
2017-10-06T11:27:32.897Z,24.26
2017-10-06T11:28:32.885Z,24.33
2017-10-06T11:29:32.872Z,24.42
2017-10-06T11:30:32.859Z,24.14
2017-10-06T11:31:32.847Z,24.43
2017-10-06T11:32:32.835Z,24.36
2017-10-06T11:33:32.822Z,24.66
2017-10-06T11:34:32.810Z,24.96
2017-10-06T11:35:32.797Z,25.21
2017-10-06T11:36:32.785Z,25.14
2017-10-06T11:37:32.772Z,24.66
2017-10-06T11:38:32.760Z,24.73
2017-10-06T11:39:32.748Z,25.04
2017-10-06T11:40:32.736Z,25.36
2017-10-06T11:41:32.723Z,25.54
2017-10-06T11:42:32.712Z,25.62
2017-10-06T11:43:32.700Z,25.83
2017-10-06T11:44:32.689Z,25.58
2017-10-06T11:45:32.677Z,25.84
2017-10-06T11:46:32.668Z,26.07
2017-10-06T11:47:32.655Z,26.34
2017-10-06T11:48:32.644Z,26.45
2017-10-06T11:49:32.633Z,26.58
2017-10-06T11:50:32.622Z,26.74
2017-10-06T11:51:32.611Z,26.78
2017-10-06T11:52:32.601Z,26.88
2017-10-06T11:53:32.590Z,27.00
2017-10-06T11:54:32.584Z,27.15
2017-10-06T11:55:32.568Z,27.20
2017-10-06T11:56:32.559Z,27.30
2017-10-06T11:57:32.548Z,27.35
2017-10-06T11:58:32.538Z,27.29
2017-10-06T11:59:32.527Z,27.37
2017-10-06T12:00:32.519Z,27.47
2017-10-06T12:01:32.507Z,27.47
2017-10-06T12:02:32.497Z,27.58
2017-10-06T12:03:32.487Z,27.55
2017-10-06T12:04:32.478Z,27.59
2017-10-06T12:05:32.467Z,27.68
2017-10-06T12:06:32.458Z,27.63
2017-10-06T12:07:32.448Z,27.82
2017-10-06T12:08:32.440Z,27.77
2017-10-06T12:09:32.429Z,27.47
2017-10-06T12:10:32.420Z,27.40
2017-10-06T12:11:32.414Z,27.35
2017-10-06T12:12:32.400Z,27.59
2017-10-06T12:13:32.391Z,26.92
2017-10-06T12:14:32.382Z,26.18
2017-10-06T12:15:32.372Z,26.44
2017-10-06T12:16:32.362Z,26.21
2017-10-06T12:17:32.351Z,25.99
2017-10-06T12:18:32.342Z,25.85
2017-10-06T12:19:32.355Z,25.80
2017-10-06T12:20:32.324Z,26.23
2017-10-06T12:21:32.313Z,26.65
2017-10-06T12:22:32.302Z,26.28
2017-10-06T12:23:32.292Z,25.85
2017-10-06T12:24:32.283Z,25.29
2017-10-06T12:25:32.273Z,25.03
2017-10-06T12:26:32.263Z,24.77
2017-10-06T12:27:32.253Z,24.68
2017-10-06T12:28:32.244Z,24.42
2017-10-06T12:29:32.235Z,24.39
2017-10-06T12:30:32.221Z,24.26
2017-10-06T12:31:32.210Z,24.20
2017-10-06T12:32:32.200Z,24.18
2017-10-06T12:33:32.189Z,24.58
2017-10-06T12:34:32.179Z,24.91
2017-10-06T12:35:32.167Z,25.22
2017-10-06T12:36:32.156Z,25.35
2017-10-06T12:37:32.146Z,25.50
2017-10-06T12:38:32.135Z,25.66
2017-10-06T12:39:32.124Z,25.62
2017-10-06T12:40:32.113Z,25.72
2017-10-06T12:41:32.100Z,25.66
2017-10-06T12:42:32.090Z,25.62
2017-10-06T12:43:32.079Z,25.88
2017-10-06T12:44:32.069Z,25.98
2017-10-06T12:45:32.058Z,26.06
2017-10-06T12:46:32.049Z,26.10
2017-10-06T12:47:32.037Z,26.10
2017-10-06T12:48:32.027Z,26.03
2017-10-06T12:49:32.016Z,25.98
2017-10-06T12:50:32.005Z,25.73
2017-10-06T12:51:31.996Z,25.77
2017-10-06T12:52:31.985Z,25.75